sensor_id;sensor_type;location;lat;lon;timestamp;temperature;humidity
52543;DHT22;38449;52.696;6.186;2023-01-15T00:01:28;7.20;99.90
52543;DHT22;38449;52.696;6.186;2023-01-15T00:03:56;7.20;99.90
52543;DHT22;38449;52.696;6.186;2023-01-15T00:06:23;7.20;99.90
52543;DHT22;38449;52.696;6.186;2023-01-15T00:08:49;7.20;99.90
52543;DHT22;38449;52.696;6.186;2023-01-15T00:11:15;7.20;99.90
52543;DHT22;38449;52.696;6.186;2023-01-15T00:13:41;7.20;99.90
52543;DHT22;38449;52.696;6.186;2023-01-15T00:16:13;7.20;99.90
52543;DHT22;38449;52.696;6.186;2023-01-15T00:18:39;7.20;99.90
52543;DHT22;38449;52.696;6.186;2023-01-15T00:21:07;7.20;99.90
52543;DHT22;38449;52.696;6.186;2023-01-15T00:23:34;7.20;99.90
52543;DHT22;38449;52.696;6.186;2023-01-15T00:26:26;7.20;99.90
52543;DHT22;38449;52.696;6.186;2023-01-15T00:29:10;7.20;99.90
52543;DHT22;38449;52.696;6.186;2023-01-15T00:31:36;7.20;99.90
52543;DHT22;38449;52.696;6.186;2023-01-15T00:34:02;7.10;99.90
52543;DHT22;38449;52.696;6.186;2023-01-15T00:36:27;7.10;99.90
52543;DHT22;38449;52.696;6.186;2023-01-15T00:38:53;7.10;99.90
52543;DHT22;38449;52.696;6.186;2023-01-15T00:41:19;7.20;99.90
52543;DHT22;38449;52.696;6.186;2023-01-15T00:43:44;7.20;99.90
52543;DHT22;38449;52.696;6.186;2023-01-15T00:46:12;7.20;99.90
52543;DHT22;38449;52.696;6.186;2023-01-15T00:48:37;7.20;99.90
52543;DHT22;38449;52.696;6.186;2023-01-15T00:51:04;7.20;99.90
52543;DHT22;38449;52.696;6.186;2023-01-15T00:53:30;7.20;99.90
52543;DHT22;38449;52.696;6.186;2023-01-15T00:55:55;7.20;99.90
52543;DHT22;38449;52.696;6.186;2023-01-15T00:58:21;7.20;99.90
52543;DHT22;38449;52.696;6.186;2023-01-15T01:00:54;7.20;99.90
52543;DHT22;38449;52.696;6.186;2023-01-15T01:03:21;7.20;99.90
52543;DHT22;38449;52.696;6.186;2023-01-15T01:05:47;7.10;99.90
52543;DHT22;38449;52.696;6.186;2023-01-15T01:08:12;7.10;99.90
52543;DHT22;38449;52.696;6.186;2023-01-15T01:10:38;7.10;99.90
52543;DHT22;38449;52.696;6.186;2023-01-15T01:13:04;7.10;99.90
52543;DHT22;38449;52.696;6.186;2023-01-15T01:15:32;7.10;99.90
52543;DHT22;38449;52.696;6.186;2023-01-15T01:18:00;7.20;99.90
52543;DHT22;38449;52.696;6.186;2023-01-15T01:20:26;7.10;99.90
52543;DHT22;38449;52.696;6.186;2023-01-15T01:22:51;7.10;99.90
52543;DHT22;38449;52.696;6.186;2023-01-15T01:25:17;7.10;99.90
52543;DHT22;38449;52.696;6.186;2023-01-15T01:27:44;7.00;99.90
52543;DHT22;38449;52.696;6.186;2023-01-15T01:30:19;7.10;99.90
52543;DHT22;38449;52.696;6.186;2023-01-15T01:32:45;7.10;99.90
52543;DHT22;38449;52.696;6.186;2023-01-15T01:35:20;7.00;99.90
52543;DHT22;38449;52.696;6.186;2023-01-15T01:37:51;7.00;99.90
52543;DHT22;38449;52.696;6.186;2023-01-15T01:40:18;7.00;99.90
52543;DHT22;38449;52.696;6.186;2023-01-15T01:42:43;7.00;99.90
52543;DHT22;38449;52.696;6.186;2023-01-15T01:45:26;7.10;99.90
52543;DHT22;38449;52.696;6.186;2023-01-15T01:47:55;7.00;99.90
52543;DHT22;38449;52.696;6.186;2023-01-15T01:50:23;7.00;99.90
52543;DHT22;38449;52.696;6.186;2023-01-15T01:52:55;7.00;99.90
52543;DHT22;38449;52.696;6.186;2023-01-15T01:55:23;7.00;99.90
52543;DHT22;38449;52.696;6.186;2023-01-15T01:57:51;7.00;99.90
52543;DHT22;38449;52.696;6.186;2023-01-15T02:00:17;7.00;99.90
52543;DHT22;38449;52.696;6.186;2023-01-15T02:02:46;7.10;99.90
52543;DHT22;38449;52.696;6.186;2023-01-15T02:05:26;7.00;99.90
52543;DHT22;38449;52.696;6.186;2023-01-15T02:07:53;6.90;99.90
52543;DHT22;38449;52.696;6.186;2023-01-15T02:10:18;7.00;99.90
52543;DHT22;38449;52.696;6.186;2023-01-15T02:12:51;6.90;99.90
52543;DHT22;38449;52.696;6.186;2023-01-15T02:15:29;6.90;99.90
52543;DHT22;38449;52.696;6.186;2023-01-15T02:18:11;6.90;99.90
52543;DHT22;38449;52.696;6.186;2023-01-15T02:20:47;6.90;99.90
52543;DHT22;38449;52.696;6.186;2023-01-15T02:23:23;6.90;99.90
52543;DHT22;38449;52.696;6.186;2023-01-15T02:28:36;6.80;99.90
52543;DHT22;38449;52.696;6.186;2023-01-15T02:33:38;6.80;99.90
52543;DHT22;38449;52.696;6.186;2023-01-15T02:36:08;6.80;99.90
52543;DHT22;38449;52.696;6.186;2023-01-15T02:38:40;6.80;99.90
52543;DHT22;38449;52.696;6.186;2023-01-15T02:41:09;6.80;99.90
52543;DHT22;38449;52.696;6.186;2023-01-15T02:43:44;6.80;99.90
52543;DHT22;38449;52.696;6.186;2023-01-15T02:46:13;6.70;99.90
52543;DHT22;38449;52.696;6.186;2023-01-15T02:48:40;6.80;99.90
52543;DHT22;38449;52.696;6.186;2023-01-15T02:51:11;6.80;99.90
52543;DHT22;38449;52.696;6.186;2023-01-15T02:53:39;6.90;99.90
52543;DHT22;38449;52.696;6.186;2023-01-15T02:56:10;6.80;99.90
52543;DHT22;38449;52.696;6.186;2023-01-15T02:58:39;6.80;99.90
52543;DHT22;38449;52.696;6.186;2023-01-15T03:01:12;6.80;99.90
52543;DHT22;38449;52.696;6.186;2023-01-15T03:03:46;6.90;99.90
52543;DHT22;38449;52.696;6.186;2023-01-15T03:06:18;6.80;99.90
52543;DHT22;38449;52.696;6.186;2023-01-15T03:08:46;6.80;99.90
52543;DHT22;38449;52.696;6.186;2023-01-15T03:11:14;6.90;99.90
52543;DHT22;38449;52.696;6.186;2023-01-15T03:13:45;6.90;99.90
52543;DHT22;38449;52.696;6.186;2023-01-15T03:16:32;6.90;99.90
52543;DHT22;38449;52.696;6.186;2023-01-15T03:19:11;6.80;99.90
52543;DHT22;38449;52.696;6.186;2023-01-15T03:24:41;6.80;99.90
52543;DHT22;38449;52.696;6.186;2023-01-15T03:27:08;6.70;99.90
52543;DHT22;38449;52.696;6.186;2023-01-15T03:29:39;6.70;99.90
52543;DHT22;38449;52.696;6.186;2023-01-15T03:32:06;6.80;99.90
52543;DHT22;38449;52.696;6.186;2023-01-15T03:34:50;6.80;99.90
52543;DHT22;38449;52.696;6.186;2023-01-15T03:37:17;6.70;99.90
52543;DHT22;38449;52.696;6.186;2023-01-15T03:39:44;6.70;99.90
52543;DHT22;38449;52.696;6.186;2023-01-15T03:42:21;6.70;99.90
52543;DHT22;38449;52.696;6.186;2023-01-15T03:47:48;6.70;99.90
52543;DHT22;38449;52.696;6.186;2023-01-15T03:50:34;6.70;99.90
52543;DHT22;38449;52.696;6.186;2023-01-15T03:53:19;6.70;99.90
52543;DHT22;38449;52.696;6.186;2023-01-15T03:58:28;6.60;99.90
52543;DHT22;38449;52.696;6.186;2023-01-15T04:00:57;6.60;99.90
52543;DHT22;38449;52.696;6.186;2023-01-15T04:03:26;6.60;99.90
52543;DHT22;38449;52.696;6.186;2023-01-15T04:05:54;6.60;99.90
52543;DHT22;38449;52.696;6.186;2023-01-15T04:08:22;6.60;99.90
52543;DHT22;38449;52.696;6.186;2023-01-15T04:13:17;6.60;99.90
52543;DHT22;38449;52.696;6.186;2023-01-15T04:15:43;6.60;99.90
52543;DHT22;38449;52.696;6.186;2023-01-15T04:18:08;6.60;99.90
52543;DHT22;38449;52.696;6.186;2023-01-15T04:20:34;6.50;99.90
52543;DHT22;38449;52.696;6.186;2023-01-15T04:22:59;6.60;99.90
52543;DHT22;38449;52.696;6.186;2023-01-15T04:25:25;6.60;99.90
52543;DHT22;38449;52.696;6.186;2023-01-15T04:27:53;6.70;99.90
52543;DHT22;38449;52.696;6.186;2023-01-15T04:30:21;6.60;99.90
52543;DHT22;38449;52.696;6.186;2023-01-15T04:32:50;6.60;99.90
52543;DHT22;38449;52.696;6.186;2023-01-15T04:35:17;6.60;99.90
52543;DHT22;38449;52.696;6.186;2023-01-15T04:37:42;6.50;99.90
52543;DHT22;38449;52.696;6.186;2023-01-15T04:40:09;6.50;99.90
52543;DHT22;38449;52.696;6.186;2023-01-15T04:43:03;6.50;99.90
52543;DHT22;38449;52.696;6.186;2023-01-15T04:45:47;6.50;99.90
52543;DHT22;38449;52.696;6.186;2023-01-15T04:48:13;6.50;99.90
52543;DHT22;38449;52.696;6.186;2023-01-15T04:50:38;6.50;99.90
52543;DHT22;38449;52.696;6.186;2023-01-15T04:53:04;6.50;99.90
52543;DHT22;38449;52.696;6.186;2023-01-15T04:55:30;6.50;99.90
52543;DHT22;38449;52.696;6.186;2023-01-15T04:57:55;6.40;99.90
52543;DHT22;38449;52.696;6.186;2023-01-15T05:00:21;6.50;99.90
52543;DHT22;38449;52.696;6.186;2023-01-15T05:02:48;6.40;99.90
52543;DHT22;38449;52.696;6.186;2023-01-15T05:05:13;6.40;99.90
52543;DHT22;38449;52.696;6.186;2023-01-15T05:07:39;6.50;99.90
52543;DHT22;38449;52.696;6.186;2023-01-15T05:10:05;6.50;99.90
52543;DHT22;38449;52.696;6.186;2023-01-15T05:12:30;6.50;99.90
52543;DHT22;38449;52.696;6.186;2023-01-15T05:14:59;6.40;99.90
52543;DHT22;38449;52.696;6.186;2023-01-15T05:17:24;6.40;99.90
52543;DHT22;38449;52.696;6.186;2023-01-15T05:19:50;6.40;99.90
52543;DHT22;38449;52.696;6.186;2023-01-15T05:22:15;6.40;99.90
52543;DHT22;38449;52.696;6.186;2023-01-15T05:24:41;6.40;99.90
52543;DHT22;38449;52.696;6.186;2023-01-15T05:27:06;6.30;99.90
52543;DHT22;38449;52.696;6.186;2023-01-15T05:29:35;6.30;99.90
52543;DHT22;38449;52.696;6.186;2023-01-15T05:32:00;6.30;99.90
52543;DHT22;38449;52.696;6.186;2023-01-15T05:34:26;6.30;99.90
52543;DHT22;38449;52.696;6.186;2023-01-15T05:36:52;6.30;99.90
52543;DHT22;38449;52.696;6.186;2023-01-15T05:39:17;6.30;99.90
52543;DHT22;38449;52.696;6.186;2023-01-15T05:41:43;6.40;99.90
52543;DHT22;38449;52.696;6.186;2023-01-15T05:44:23;6.40;99.90
52543;DHT22;38449;52.696;6.186;2023-01-15T05:46:50;6.40;99.90
52543;DHT22;38449;52.696;6.186;2023-01-15T05:49:19;6.30;99.90
52543;DHT22;38449;52.696;6.186;2023-01-15T05:51:45;6.20;99.90
52543;DHT22;38449;52.696;6.186;2023-01-15T05:54:13;6.20;99.90
52543;DHT22;38449;52.696;6.186;2023-01-15T05:56:39;6.20;99.90
52543;DHT22;38449;52.696;6.186;2023-01-15T05:59:06;6.10;99.90
52543;DHT22;38449;52.696;6.186;2023-01-15T06:01:31;6.10;99.90
52543;DHT22;38449;52.696;6.186;2023-01-15T06:03:59;6.10;99.90
52543;DHT22;38449;52.696;6.186;2023-01-15T06:06:28;6.10;99.90
52543;DHT22;38449;52.696;6.186;2023-01-15T06:08:53;6.10;99.90
52543;DHT22;38449;52.696;6.186;2023-01-15T06:11:19;6.10;99.90
52543;DHT22;38449;52.696;6.186;2023-01-15T06:13:44;6.10;99.90
52543;DHT22;38449;52.696;6.186;2023-01-15T06:16:10;6.10;99.90
52543;DHT22;38449;52.696;6.186;2023-01-15T06:18:37;6.10;99.90
52543;DHT22;38449;52.696;6.186;2023-01-15T06:21:04;6.00;99.90
52543;DHT22;38449;52.696;6.186;2023-01-15T06:23:31;6.00;99.90
52543;DHT22;38449;52.696;6.186;2023-01-15T06:26:01;5.90;99.90
52543;DHT22;38449;52.696;6.186;2023-01-15T06:28:26;5.90;99.90
52543;DHT22;38449;52.696;6.186;2023-01-15T06:30:52;5.90;99.90
52543;DHT22;38449;52.696;6.186;2023-01-15T06:33:18;5.80;99.90
52543;DHT22;38449;52.696;6.186;2023-01-15T06:35:43;5.80;99.90
52543;DHT22;38449;52.696;6.186;2023-01-15T06:38:09;5.80;99.90
52543;DHT22;38449;52.696;6.186;2023-01-15T06:40:35;5.70;99.90
52543;DHT22;38449;52.696;6.186;2023-01-15T06:43:02;5.80;99.90
52543;DHT22;38449;52.696;6.186;2023-01-15T06:45:55;5.70;99.90
52543;DHT22;38449;52.696;6.186;2023-01-15T06:48:40;5.70;99.90
52543;DHT22;38449;52.696;6.186;2023-01-15T06:51:05;5.70;99.90
52543;DHT22;38449;52.696;6.186;2023-01-15T06:53:31;5.70;99.90
52543;DHT22;38449;52.696;6.186;2023-01-15T06:56:00;5.80;99.90
52543;DHT22;38449;52.696;6.186;2023-01-15T06:58:26;5.90;99.90
52543;DHT22;38449;52.696;6.186;2023-01-15T07:00:51;5.90;99.90
52543;DHT22;38449;52.696;6.186;2023-01-15T07:03:20;5.90;99.90
52543;DHT22;38449;52.696;6.186;2023-01-15T07:05:46;5.90;99.90
52543;DHT22;38449;52.696;6.186;2023-01-15T07:08:11;5.80;99.90
52543;DHT22;38449;52.696;6.186;2023-01-15T07:10:37;5.70;99.90
52543;DHT22;38449;52.696;6.186;2023-01-15T07:13:12;5.70;99.90
52543;DHT22;38449;52.696;6.186;2023-01-15T07:15:38;5.70;99.90
52543;DHT22;38449;52.696;6.186;2023-01-15T07:18:04;5.90;99.90
52543;DHT22;38449;52.696;6.186;2023-01-15T07:20:29;6.00;99.90
52543;DHT22;38449;52.696;6.186;2023-01-15T07:22:55;5.90;99.90
52543;DHT22;38449;52.696;6.186;2023-01-15T07:25:21;5.70;99.90
52543;DHT22;38449;52.696;6.186;2023-01-15T07:27:46;5.60;99.90
52543;DHT22;38449;52.696;6.186;2023-01-15T07:30:13;5.60;99.90
52543;DHT22;38449;52.696;6.186;2023-01-15T07:32:38;5.50;99.90
52543;DHT22;38449;52.696;6.186;2023-01-15T07:35:04;5.50;99.90
52543;DHT22;38449;52.696;6.186;2023-01-15T07:37:30;5.50;99.90
52543;DHT22;38449;52.696;6.186;2023-01-15T07:39:55;5.60;99.90
52543;DHT22;38449;52.696;6.186;2023-01-15T07:42:22;5.60;99.90
52543;DHT22;38449;52.696;6.186;2023-01-15T07:45:09;5.70;99.90
52543;DHT22;38449;52.696;6.186;2023-01-15T07:47:53;5.60;99.90
52543;DHT22;38449;52.696;6.186;2023-01-15T07:50:38;5.60;99.90
52543;DHT22;38449;52.696;6.186;2023-01-15T07:53:03;5.60;99.90
52543;DHT22;38449;52.696;6.186;2023-01-15T07:55:29;5.50;99.90
52543;DHT22;38449;52.696;6.186;2023-01-15T07:57:54;5.40;99.90
52543;DHT22;38449;52.696;6.186;2023-01-15T08:00:23;5.40;99.90
52543;DHT22;38449;52.696;6.186;2023-01-15T08:02:48;5.50;99.90
52543;DHT22;38449;52.696;6.186;2023-01-15T08:05:15;5.50;99.90
52543;DHT22;38449;52.696;6.186;2023-01-15T08:07:42;5.50;99.90
52543;DHT22;38449;52.696;6.186;2023-01-15T08:10:09;5.40;99.90
52543;DHT22;38449;52.696;6.186;2023-01-15T08:12:35;5.40;99.90
52543;DHT22;38449;52.696;6.186;2023-01-15T08:15:19;5.50;99.90
52543;DHT22;38449;52.696;6.186;2023-01-15T08:17:46;5.50;99.90
52543;DHT22;38449;52.696;6.186;2023-01-15T08:20:17;5.50;99.90
52543;DHT22;38449;52.696;6.186;2023-01-15T08:22:43;5.50;99.90
52543;DHT22;38449;52.696;6.186;2023-01-15T08:25:12;5.40;99.90
52543;DHT22;38449;52.696;6.186;2023-01-15T08:27:38;5.50;99.90
52543;DHT22;38449;52.696;6.186;2023-01-15T08:30:17;5.50;99.90
52543;DHT22;38449;52.696;6.186;2023-01-15T08:32:44;5.60;99.90
52543;DHT22;38449;52.696;6.186;2023-01-15T08:35:10;5.60;99.90
52543;DHT22;38449;52.696;6.186;2023-01-15T08:37:38;5.70;99.90
52543;DHT22;38449;52.696;6.186;2023-01-15T08:40:04;5.80;99.90
52543;DHT22;38449;52.696;6.186;2023-01-15T08:42:30;5.80;99.90
52543;DHT22;38449;52.696;6.186;2023-01-15T08:44:56;5.80;99.90
52543;DHT22;38449;52.696;6.186;2023-01-15T08:47:21;5.80;99.90
52543;DHT22;38449;52.696;6.186;2023-01-15T08:49:47;5.80;99.90
52543;DHT22;38449;52.696;6.186;2023-01-15T08:52:13;5.70;99.90
52543;DHT22;38449;52.696;6.186;2023-01-15T08:54:39;5.60;99.90
52543;DHT22;38449;52.696;6.186;2023-01-15T08:57:04;5.30;99.90
52543;DHT22;38449;52.696;6.186;2023-01-15T08:59:30;5.20;99.90
52543;DHT22;38449;52.696;6.186;2023-01-15T09:01:56;5.00;99.90
52543;DHT22;38449;52.696;6.186;2023-01-15T09:04:22;5.00;99.90
52543;DHT22;38449;52.696;6.186;2023-01-15T09:06:48;5.00;99.90
52543;DHT22;38449;52.696;6.186;2023-01-15T09:09:14;4.80;99.90
52543;DHT22;38449;52.696;6.186;2023-01-15T09:11:40;4.70;99.90
52543;DHT22;38449;52.696;6.186;2023-01-15T09:14:07;4.60;99.90
52543;DHT22;38449;52.696;6.186;2023-01-15T09:16:33;4.50;99.90
52543;DHT22;38449;52.696;6.186;2023-01-15T09:18:59;4.50;99.90
52543;DHT22;38449;52.696;6.186;2023-01-15T09:21:25;4.50;99.90
52543;DHT22;38449;52.696;6.186;2023-01-15T09:23:50;4.30;99.90
52543;DHT22;38449;52.696;6.186;2023-01-15T09:26:38;4.40;99.90
52543;DHT22;38449;52.696;6.186;2023-01-15T09:29:05;4.50;99.90
52543;DHT22;38449;52.696;6.186;2023-01-15T09:31:31;4.60;99.90
52543;DHT22;38449;52.696;6.186;2023-01-15T09:33:57;4.70;99.90
52543;DHT22;38449;52.696;6.186;2023-01-15T09:36:26;4.60;99.90
52543;DHT22;38449;52.696;6.186;2023-01-15T09:38:53;4.80;99.90
52543;DHT22;38449;52.696;6.186;2023-01-15T09:41:20;4.90;99.90
52543;DHT22;38449;52.696;6.186;2023-01-15T09:46:52;5.10;99.90
52543;DHT22;38449;52.696;6.186;2023-01-15T09:55:24;5.20;99.90
52543;DHT22;38449;52.696;6.186;2023-01-15T09:57:53;5.30;99.90
52543;DHT22;38449;52.696;6.186;2023-01-15T10:00:22;5.30;99.90
52543;DHT22;38449;52.696;6.186;2023-01-15T10:02:52;5.40;99.90
52543;DHT22;38449;52.696;6.186;2023-01-15T10:05:30;5.40;99.90
52543;DHT22;38449;52.696;6.186;2023-01-15T10:10:46;5.60;99.90
52543;DHT22;38449;52.696;6.186;2023-01-15T10:13:24;5.50;99.90
52543;DHT22;38449;52.696;6.186;2023-01-15T10:15:51;5.60;99.90
52543;DHT22;38449;52.696;6.186;2023-01-15T10:18:20;5.70;99.90
52543;DHT22;38449;52.696;6.186;2023-01-15T10:26:35;5.80;99.90
52543;DHT22;38449;52.696;6.186;2023-01-15T10:31:50;5.80;99.90
52543;DHT22;38449;52.696;6.186;2023-01-15T10:37:17;5.70;99.90
52543;DHT22;38449;52.696;6.186;2023-01-15T10:40:17;5.80;99.90
52543;DHT22;38449;52.696;6.186;2023-01-15T10:43:01;5.80;99.90
52543;DHT22;38449;52.696;6.186;2023-01-15T10:45:40;5.90;99.90
52543;DHT22;38449;52.696;6.186;2023-01-15T10:50:44;6.00;99.90
52543;DHT22;38449;52.696;6.186;2023-01-15T10:53:35;6.00;99.90
52543;DHT22;38449;52.696;6.186;2023-01-15T10:56:34;6.10;99.90
52543;DHT22;38449;52.696;6.186;2023-01-15T10:59:33;6.00;99.90
52543;DHT22;38449;52.696;6.186;2023-01-15T11:01:58;6.20;99.90
52543;DHT22;38449;52.696;6.186;2023-01-15T11:04:30;6.30;99.90
52543;DHT22;38449;52.696;6.186;2023-01-15T11:06:55;6.20;99.90
52543;DHT22;38449;52.696;6.186;2023-01-15T11:09:23;6.20;99.90
52543;DHT22;38449;52.696;6.186;2023-01-15T11:12:16;6.40;99.90
52543;DHT22;38449;52.696;6.186;2023-01-15T11:14:48;6.40;99.90
52543;DHT22;38449;52.696;6.186;2023-01-15T11:17:43;6.40;99.90
52543;DHT22;38449;52.696;6.186;2023-01-15T11:20:33;6.40;99.90
52543;DHT22;38449;52.696;6.186;2023-01-15T11:23:25;6.50;99.90
52543;DHT22;38449;52.696;6.186;2023-01-15T11:25:53;6.40;99.90
52543;DHT22;38449;52.696;6.186;2023-01-15T11:28:34;6.50;99.90
52543;DHT22;38449;52.696;6.186;2023-01-15T11:31:01;6.60;99.90
52543;DHT22;38449;52.696;6.186;2023-01-15T11:33:28;6.70;99.90
52543;DHT22;38449;52.696;6.186;2023-01-15T11:35:56;6.70;99.90
52543;DHT22;38449;52.696;6.186;2023-01-15T11:38:29;6.70;99.90
52543;DHT22;38449;52.696;6.186;2023-01-15T11:40:58;6.70;99.90
52543;DHT22;38449;52.696;6.186;2023-01-15T11:43:27;6.70;99.90
52543;DHT22;38449;52.696;6.186;2023-01-15T11:46:29;6.70;99.90
52543;DHT22;38449;52.696;6.186;2023-01-15T11:49:17;6.80;99.90
52543;DHT22;38449;52.696;6.186;2023-01-15T11:52:02;6.80;99.90
52543;DHT22;38449;52.696;6.186;2023-01-15T11:54:29;6.80;99.90
52543;DHT22;38449;52.696;6.186;2023-01-15T11:56:57;6.80;99.90
52543;DHT22;38449;52.696;6.186;2023-01-15T11:59:24;6.90;99.90
52543;DHT22;38449;52.696;6.186;2023-01-15T12:01:55;6.90;99.90
52543;DHT22;38449;52.696;6.186;2023-01-15T12:07:12;7.10;99.90
52543;DHT22;38449;52.696;6.186;2023-01-15T12:10:07;7.10;99.90
52543;DHT22;38449;52.696;6.186;2023-01-15T12:26:22;7.00;99.90
52543;DHT22;38449;52.696;6.186;2023-01-15T12:29:07;7.00;99.90
52543;DHT22;38449;52.696;6.186;2023-01-15T12:31:59;7.00;99.90
52543;DHT22;38449;52.696;6.186;2023-01-15T12:34:54;7.00;99.90
52543;DHT22;38449;52.696;6.186;2023-01-15T12:37:24;6.80;99.90
52543;DHT22;38449;52.696;6.186;2023-01-15T12:39:56;6.80;99.90
52543;DHT22;38449;52.696;6.186;2023-01-15T12:42:24;6.90;99.90
52543;DHT22;38449;52.696;6.186;2023-01-15T12:45:15;6.90;99.90
52543;DHT22;38449;52.696;6.186;2023-01-15T12:50:45;6.60;99.90
52543;DHT22;38449;52.696;6.186;2023-01-15T12:53:35;6.40;99.90
52543;DHT22;38449;52.696;6.186;2023-01-15T12:59:04;6.20;99.90
52543;DHT22;38449;52.696;6.186;2023-01-15T13:01:43;6.20;99.90
52543;DHT22;38449;52.696;6.186;2023-01-15T13:06:51;6.30;99.90
52543;DHT22;38449;52.696;6.186;2023-01-15T13:09:43;6.30;99.90
52543;DHT22;38449;52.696;6.186;2023-01-15T13:12:14;6.40;99.90
52543;DHT22;38449;52.696;6.186;2023-01-15T13:14:40;6.50;99.90
52543;DHT22;38449;52.696;6.186;2023-01-15T13:17:21;6.50;99.90
52543;DHT22;38449;52.696;6.186;2023-01-15T13:20:13;6.70;99.90
52543;DHT22;38449;52.696;6.186;2023-01-15T13:22:54;6.80;99.90
52543;DHT22;38449;52.696;6.186;2023-01-15T13:30:49;7.30;99.90
52543;DHT22;38449;52.696;6.186;2023-01-15T13:33:32;7.30;99.90
52543;DHT22;38449;52.696;6.186;2023-01-15T13:38:39;7.10;99.90
52543;DHT22;38449;52.696;6.186;2023-01-15T13:41:07;7.10;99.90
52543;DHT22;38449;52.696;6.186;2023-01-15T13:46:02;7.10;99.90
52543;DHT22;38449;52.696;6.186;2023-01-15T13:48:33;7.10;99.90
52543;DHT22;38449;52.696;6.186;2023-01-15T13:51:02;7.10;99.90
52543;DHT22;38449;52.696;6.186;2023-01-15T13:53:37;7.10;99.90
52543;DHT22;38449;52.696;6.186;2023-01-15T13:56:09;7.00;99.90
52543;DHT22;38449;52.696;6.186;2023-01-15T13:58:38;7.10;99.90
52543;DHT22;38449;52.696;6.186;2023-01-15T14:06:35;7.00;99.90
52543;DHT22;38449;52.696;6.186;2023-01-15T14:09:02;6.50;99.90
52543;DHT22;38449;52.696;6.186;2023-01-15T14:20:03;5.70;99.90
52543;DHT22;38449;52.696;6.186;2023-01-15T14:26:16;5.60;99.90
52543;DHT22;38449;52.696;6.186;2023-01-15T14:29:06;5.70;99.90
52543;DHT22;38449;52.696;6.186;2023-01-15T14:34:35;5.90;99.90
52543;DHT22;38449;52.696;6.186;2023-01-15T14:39:45;5.90;99.90
52543;DHT22;38449;52.696;6.186;2023-01-15T14:42:25;5.90;99.90
52543;DHT22;38449;52.696;6.186;2023-01-15T14:47:47;5.90;99.90
52543;DHT22;38449;52.696;6.186;2023-01-15T14:50:33;5.90;99.90
52543;DHT22;38449;52.696;6.186;2023-01-15T14:58:35;6.00;99.90
52543;DHT22;38449;52.696;6.186;2023-01-15T15:01:12;6.00;99.90
52543;DHT22;38449;52.696;6.186;2023-01-15T15:03:49;6.00;99.90
52543;DHT22;38449;52.696;6.186;2023-01-15T15:06:16;6.10;99.90
52543;DHT22;38449;52.696;6.186;2023-01-15T15:08:43;6.10;99.90
52543;DHT22;38449;52.696;6.186;2023-01-15T15:11:19;6.10;99.90
52543;DHT22;38449;52.696;6.186;2023-01-15T15:14:06;6.10;99.90
52543;DHT22;38449;52.696;6.186;2023-01-15T15:16:41;6.10;99.90
52543;DHT22;38449;52.696;6.186;2023-01-15T15:19:25;6.10;99.90
52543;DHT22;38449;52.696;6.186;2023-01-15T15:21:51;6.20;99.90
52543;DHT22;38449;52.696;6.186;2023-01-15T15:26:47;6.20;99.90
52543;DHT22;38449;52.696;6.186;2023-01-15T15:29:15;6.20;99.90
52543;DHT22;38449;52.696;6.186;2023-01-15T15:31:52;6.10;99.90
52543;DHT22;38449;52.696;6.186;2023-01-15T15:34:29;6.10;99.90
52543;DHT22;38449;52.696;6.186;2023-01-15T15:36:58;6.20;99.90
52543;DHT22;38449;52.696;6.186;2023-01-15T15:39:40;6.20;99.90
52543;DHT22;38449;52.696;6.186;2023-01-15T15:42:19;6.20;99.90
52543;DHT22;38449;52.696;6.186;2023-01-15T15:45:13;6.30;99.90
52543;DHT22;38449;52.696;6.186;2023-01-15T15:47:58;6.30;99.90
52543;DHT22;38449;52.696;6.186;2023-01-15T15:50:42;6.20;99.90
52543;DHT22;38449;52.696;6.186;2023-01-15T15:53:15;6.20;99.90
52543;DHT22;38449;52.696;6.186;2023-01-15T15:55:43;6.30;99.90
52543;DHT22;38449;52.696;6.186;2023-01-15T15:58:28;6.30;99.90
52543;DHT22;38449;52.696;6.186;2023-01-15T16:00:55;6.20;99.90
52543;DHT22;38449;52.696;6.186;2023-01-15T16:03:24;6.10;99.90
52543;DHT22;38449;52.696;6.186;2023-01-15T16:05:56;6.10;99.90
52543;DHT22;38449;52.696;6.186;2023-01-15T16:08:22;6.00;99.90
52543;DHT22;38449;52.696;6.186;2023-01-15T16:10:50;6.10;99.90
52543;DHT22;38449;52.696;6.186;2023-01-15T16:13:41;6.10;99.90
52543;DHT22;38449;52.696;6.186;2023-01-15T16:16:08;6.00;99.90
52543;DHT22;38449;52.696;6.186;2023-01-15T16:18:39;6.10;99.90
52543;DHT22;38449;52.696;6.186;2023-01-15T16:21:10;6.20;99.90
52543;DHT22;38449;52.696;6.186;2023-01-15T16:23:36;6.10;99.90
52543;DHT22;38449;52.696;6.186;2023-01-15T16:26:12;6.10;99.90
52543;DHT22;38449;52.696;6.186;2023-01-15T16:28:43;6.10;99.90
52543;DHT22;38449;52.696;6.186;2023-01-15T16:31:12;6.10;99.90
52543;DHT22;38449;52.696;6.186;2023-01-15T16:33:39;6.10;99.90
52543;DHT22;38449;52.696;6.186;2023-01-15T16:36:05;6.20;99.90
52543;DHT22;38449;52.696;6.186;2023-01-15T16:38:35;6.10;99.90
52543;DHT22;38449;52.696;6.186;2023-01-15T16:41:01;6.10;99.90
52543;DHT22;38449;52.696;6.186;2023-01-15T16:43:28;6.10;99.90
52543;DHT22;38449;52.696;6.186;2023-01-15T16:50:49;6.10;99.90
52543;DHT22;38449;52.696;6.186;2023-01-15T16:53:38;6.10;99.90
52543;DHT22;38449;52.696;6.186;2023-01-15T16:56:05;6.10;99.90
52543;DHT22;38449;52.696;6.186;2023-01-15T16:58:47;6.20;99.90
52543;DHT22;38449;52.696;6.186;2023-01-15T17:01:31;6.00;99.90
52543;DHT22;38449;52.696;6.186;2023-01-15T17:03:57;6.10;99.90
52543;DHT22;38449;52.696;6.186;2023-01-15T17:06:25;6.10;99.90
52543;DHT22;38449;52.696;6.186;2023-01-15T17:08:53;6.20;99.90
52543;DHT22;38449;52.696;6.186;2023-01-15T17:11:29;6.10;99.90
52543;DHT22;38449;52.696;6.186;2023-01-15T17:16:32;6.10;99.90
52543;DHT22;38449;52.696;6.186;2023-01-15T17:18:58;6.00;99.90
52543;DHT22;38449;52.696;6.186;2023-01-15T17:21:23;6.00;99.90
52543;DHT22;38449;52.696;6.186;2023-01-15T17:23:54;6.00;99.90
52543;DHT22;38449;52.696;6.186;2023-01-15T17:26:22;5.90;99.90
52543;DHT22;38449;52.696;6.186;2023-01-15T17:28:48;5.90;99.90
52543;DHT22;38449;52.696;6.186;2023-01-15T17:31:27;5.90;99.90
52543;DHT22;38449;52.696;6.186;2023-01-15T17:33:55;5.80;99.90
52543;DHT22;38449;52.696;6.186;2023-01-15T17:36:22;5.80;99.90
52543;DHT22;38449;52.696;6.186;2023-01-15T17:38:47;5.90;99.90
52543;DHT22;38449;52.696;6.186;2023-01-15T17:41:15;5.80;99.90
52543;DHT22;38449;52.696;6.186;2023-01-15T17:43:42;5.80;99.90
52543;DHT22;38449;52.696;6.186;2023-01-15T17:46:07;5.70;99.90
52543;DHT22;38449;52.696;6.186;2023-01-15T17:48:33;5.80;99.90
52543;DHT22;38449;52.696;6.186;2023-01-15T17:51:04;5.70;99.90
52543;DHT22;38449;52.696;6.186;2023-01-15T17:53:29;5.70;99.90
52543;DHT22;38449;52.696;6.186;2023-01-15T17:55:57;5.70;99.90
52543;DHT22;38449;52.696;6.186;2023-01-15T17:58:41;5.70;99.90
52543;DHT22;38449;52.696;6.186;2023-01-15T18:01:26;5.70;99.90
52543;DHT22;38449;52.696;6.186;2023-01-15T18:04:21;5.60;99.90
52543;DHT22;38449;52.696;6.186;2023-01-15T18:07:07;5.80;99.90
52543;DHT22;38449;52.696;6.186;2023-01-15T18:09:34;5.70;99.90